sensor_id;sensor_type;location;lat;lon;timestamp;temperature;humidity
19164;DHT22;9714;51.208;4.242;2023-07-13T00:00:30;18.20;99.90
19164;DHT22;9714;51.208;4.242;2023-07-13T00:02:58;18.20;99.90
19164;DHT22;9714;51.208;4.242;2023-07-13T00:05:25;18.20;99.90
19164;DHT22;9714;51.208;4.242;2023-07-13T00:07:53;18.10;99.90
19164;DHT22;9714;51.208;4.242;2023-07-13T00:10:22;18.10;99.90
19164;DHT22;9714;51.208;4.242;2023-07-13T00:12:50;18.20;99.90
19164;DHT22;9714;51.208;4.242;2023-07-13T00:15:22;18.10;99.90
19164;DHT22;9714;51.208;4.242;2023-07-13T00:17:50;17.90;99.90
19164;DHT22;9714;51.208;4.242;2023-07-13T00:20:18;18.00;99.90
19164;DHT22;9714;51.208;4.242;2023-07-13T00:22:48;18.00;99.90
19164;DHT22;9714;51.208;4.242;2023-07-13T00:25:15;17.90;99.90
19164;DHT22;9714;51.208;4.242;2023-07-13T00:27:44;17.90;99.90
19164;DHT22;9714;51.208;4.242;2023-07-13T00:30:14;17.80;99.90
19164;DHT22;9714;51.208;4.242;2023-07-13T00:32:41;17.90;99.90
19164;DHT22;9714;51.208;4.242;2023-07-13T00:35:12;18.00;99.90
19164;DHT22;9714;51.208;4.242;2023-07-13T00:37:39;18.00;99.90
19164;DHT22;9714;51.208;4.242;2023-07-13T00:40:09;18.00;99.90
19164;DHT22;9714;51.208;4.242;2023-07-13T00:42:36;18.00;99.90
19164;DHT22;9714;51.208;4.242;2023-07-13T00:48:09;17.70;99.90
19164;DHT22;9714;51.208;4.242;2023-07-13T00:50:38;17.70;99.90
19164;DHT22;9714;51.208;4.242;2023-07-13T00:53:05;17.50;99.90
19164;DHT22;9714;51.208;4.242;2023-07-13T00:55:33;17.60;99.90
19164;DHT22;9714;51.208;4.242;2023-07-13T00:58:00;17.50;99.90
19164;DHT22;9714;51.208;4.242;2023-07-13T01:00:30;17.60;99.90
19164;DHT22;9714;51.208;4.242;2023-07-13T01:02:58;17.60;99.90
19164;DHT22;9714;51.208;4.242;2023-07-13T01:05:27;17.60;99.90
19164;DHT22;9714;51.208;4.242;2023-07-13T01:07:54;17.50;99.90
19164;DHT22;9714;51.208;4.242;2023-07-13T01:10:22;17.50;99.90
19164;DHT22;9714;51.208;4.242;2023-07-13T01:12:50;17.50;99.90
19164;DHT22;9714;51.208;4.242;2023-07-13T01:15:38;17.60;99.90
19164;DHT22;9714;51.208;4.242;2023-07-13T01:18:07;17.50;99.90
19164;DHT22;9714;51.208;4.242;2023-07-13T01:20:36;17.60;99.90
19164;DHT22;9714;51.208;4.242;2023-07-13T01:23:08;17.50;99.90
19164;DHT22;9714;51.208;4.242;2023-07-13T01:25:36;17.50;99.90
19164;DHT22;9714;51.208;4.242;2023-07-13T01:28:05;17.50;99.90
19164;DHT22;9714;51.208;4.242;2023-07-13T01:30:34;17.40;99.90
19164;DHT22;9714;51.208;4.242;2023-07-13T01:33:01;17.40;99.90
19164;DHT22;9714;51.208;4.242;2023-07-13T01:35:29;17.40;99.90
19164;DHT22;9714;51.208;4.242;2023-07-13T01:37:57;17.40;99.90
19164;DHT22;9714;51.208;4.242;2023-07-13T01:40:28;17.40;99.90
19164;DHT22;9714;51.208;4.242;2023-07-13T01:42:55;17.40;99.90
19164;DHT22;9714;51.208;4.242;2023-07-13T01:45:23;17.30;99.90
19164;DHT22;9714;51.208;4.242;2023-07-13T01:47:50;17.30;99.90
19164;DHT22;9714;51.208;4.242;2023-07-13T01:50:18;17.30;99.90
19164;DHT22;9714;51.208;4.242;2023-07-13T01:52:46;17.30;99.90
19164;DHT22;9714;51.208;4.242;2023-07-13T01:55:13;17.20;99.90
19164;DHT22;9714;51.208;4.242;2023-07-13T01:57:42;17.20;99.90
19164;DHT22;9714;51.208;4.242;2023-07-13T02:00:14;17.20;99.90
19164;DHT22;9714;51.208;4.242;2023-07-13T02:02:42;17.20;99.90
19164;DHT22;9714;51.208;4.242;2023-07-13T02:05:10;17.20;99.90
19164;DHT22;9714;51.208;4.242;2023-07-13T02:07:37;17.20;99.90
19164;DHT22;9714;51.208;4.242;2023-07-13T02:10:07;17.20;99.90
19164;DHT22;9714;51.208;4.242;2023-07-13T02:12:34;17.10;99.90
19164;DHT22;9714;51.208;4.242;2023-07-13T02:15:05;17.10;99.90
19164;DHT22;9714;51.208;4.242;2023-07-13T02:17:34;17.10;99.90
19164;DHT22;9714;51.208;4.242;2023-07-13T02:20:01;17.20;99.90
19164;DHT22;9714;51.208;4.242;2023-07-13T02:22:29;17.10;99.90
19164;DHT22;9714;51.208;4.242;2023-07-13T02:24:56;17.10;99.90
19164;DHT22;9714;51.208;4.242;2023-07-13T02:27:23;17.00;99.90
19164;DHT22;9714;51.208;4.242;2023-07-13T02:29:50;17.00;99.90
19164;DHT22;9714;51.208;4.242;2023-07-13T02:32:19;17.10;99.90
19164;DHT22;9714;51.208;4.242;2023-07-13T02:34:46;17.10;99.90
19164;DHT22;9714;51.208;4.242;2023-07-13T02:37:14;17.10;99.90
19164;DHT22;9714;51.208;4.242;2023-07-13T02:39:41;17.00;99.90
19164;DHT22;9714;51.208;4.242;2023-07-13T02:42:08;17.00;99.90
19164;DHT22;9714;51.208;4.242;2023-07-13T02:44:36;16.90;99.90
19164;DHT22;9714;51.208;4.242;2023-07-13T02:47:03;16.90;99.90
19164;DHT22;9714;51.208;4.242;2023-07-13T02:49:32;16.90;99.90
19164;DHT22;9714;51.208;4.242;2023-07-13T02:51:59;16.90;99.90
19164;DHT22;9714;51.208;4.242;2023-07-13T02:54:26;17.00;99.90
19164;DHT22;9714;51.208;4.242;2023-07-13T02:56:53;17.00;99.90
19164;DHT22;9714;51.208;4.242;2023-07-13T02:59:20;16.80;99.90
19164;DHT22;9714;51.208;4.242;2023-07-13T03:01:47;16.90;99.90
19164;DHT22;9714;51.208;4.242;2023-07-13T03:04:14;17.00;99.90
19164;DHT22;9714;51.208;4.242;2023-07-13T03:06:46;17.10;99.90
19164;DHT22;9714;51.208;4.242;2023-07-13T03:09:14;17.10;99.90
19164;DHT22;9714;51.208;4.242;2023-07-13T03:11:41;17.10;99.90
19164;DHT22;9714;51.208;4.242;2023-07-13T03:14:09;17.20;99.90
19164;DHT22;9714;51.208;4.242;2023-07-13T03:16:36;17.20;99.90
19164;DHT22;9714;51.208;4.242;2023-07-13T03:19:04;17.10;99.90
19164;DHT22;9714;51.208;4.242;2023-07-13T03:21:33;17.00;99.90
19164;DHT22;9714;51.208;4.242;2023-07-13T03:24:05;16.90;99.90
19164;DHT22;9714;51.208;4.242;2023-07-13T03:26:32;16.90;99.90
19164;DHT22;9714;51.208;4.242;2023-07-13T03:29:01;16.90;99.90
19164;DHT22;9714;51.208;4.242;2023-07-13T03:31:34;17.00;99.90
19164;DHT22;9714;51.208;4.242;2023-07-13T03:34:02;17.00;99.90
19164;DHT22;9714;51.208;4.242;2023-07-13T03:36:31;16.90;99.90
19164;DHT22;9714;51.208;4.242;2023-07-13T03:39:02;16.90;99.90
19164;DHT22;9714;51.208;4.242;2023-07-13T03:41:31;16.80;99.90
19164;DHT22;9714;51.208;4.242;2023-07-13T03:43:59;16.90;99.90
19164;DHT22;9714;51.208;4.242;2023-07-13T03:46:27;16.70;99.90
19164;DHT22;9714;51.208;4.242;2023-07-13T03:48:55;16.80;99.90
19164;DHT22;9714;51.208;4.242;2023-07-13T03:51:23;16.80;99.90
19164;DHT22;9714;51.208;4.242;2023-07-13T03:53:50;16.70;99.90
19164;DHT22;9714;51.208;4.242;2023-07-13T03:56:21;16.90;99.90
19164;DHT22;9714;51.208;4.242;2023-07-13T03:58:50;16.70;99.90
19164;DHT22;9714;51.208;4.242;2023-07-13T04:01:19;16.70;99.90
19164;DHT22;9714;51.208;4.242;2023-07-13T04:03:47;16.80;99.90
19164;DHT22;9714;51.208;4.242;2023-07-13T04:06:17;16.80;99.90
19164;DHT22;9714;51.208;4.242;2023-07-13T04:08:48;17.00;99.90
19164;DHT22;9714;51.208;4.242;2023-07-13T04:11:18;17.00;99.90
19164;DHT22;9714;51.208;4.242;2023-07-13T04:13:50;17.10;99.90
19164;DHT22;9714;51.208;4.242;2023-07-13T04:16:19;17.00;99.90
19164;DHT22;9714;51.208;4.242;2023-07-13T04:18:47;17.20;99.90
19164;DHT22;9714;51.208;4.242;2023-07-13T04:21:16;17.30;99.90
19164;DHT22;9714;51.208;4.242;2023-07-13T04:23:44;17.40;99.90
19164;DHT22;9714;51.208;4.242;2023-07-13T04:26:11;17.40;99.90
19164;DHT22;9714;51.208;4.242;2023-07-13T04:28:39;17.50;99.90
19164;DHT22;9714;51.208;4.242;2023-07-13T04:31:07;17.50;99.90
19164;DHT22;9714;51.208;4.242;2023-07-13T04:33:35;17.50;99.90
19164;DHT22;9714;51.208;4.242;2023-07-13T04:36:03;17.50;99.90
19164;DHT22;9714;51.208;4.242;2023-07-13T04:38:32;17.40;99.90
19164;DHT22;9714;51.208;4.242;2023-07-13T04:41:02;17.40;99.90
19164;DHT22;9714;51.208;4.242;2023-07-13T04:43:32;17.70;99.90
19164;DHT22;9714;51.208;4.242;2023-07-13T04:46:04;17.70;99.90
19164;DHT22;9714;51.208;4.242;2023-07-13T04:48:33;17.60;99.90
19164;DHT22;9714;51.208;4.242;2023-07-13T04:51:01;17.60;99.90
19164;DHT22;9714;51.208;4.242;2023-07-13T04:53:31;17.70;99.90
19164;DHT22;9714;51.208;4.242;2023-07-13T04:56:00;17.60;99.90
19164;DHT22;9714;51.208;4.242;2023-07-13T04:58:27;17.80;99.90
19164;DHT22;9714;51.208;4.242;2023-07-13T05:01:00;17.80;99.90
19164;DHT22;9714;51.208;4.242;2023-07-13T05:03:27;17.80;99.90
19164;DHT22;9714;51.208;4.242;2023-07-13T05:05:59;17.80;99.90
19164;DHT22;9714;51.208;4.242;2023-07-13T05:08:28;18.10;99.90
19164;DHT22;9714;51.208;4.242;2023-07-13T05:10:59;18.00;99.90
19164;DHT22;9714;51.208;4.242;2023-07-13T05:13:26;18.00;99.90
19164;DHT22;9714;51.208;4.242;2023-07-13T05:16:00;18.00;99.90
19164;DHT22;9714;51.208;4.242;2023-07-13T05:18:30;18.20;99.90
19164;DHT22;9714;51.208;4.242;2023-07-13T05:21:00;18.20;99.90
19164;DHT22;9714;51.208;4.242;2023-07-13T05:23:29;18.20;99.90
19164;DHT22;9714;51.208;4.242;2023-07-13T05:25:57;18.20;99.90
19164;DHT22;9714;51.208;4.242;2023-07-13T05:28:25;18.40;99.90
19164;DHT22;9714;51.208;4.242;2023-07-13T05:30:53;18.30;99.90
19164;DHT22;9714;51.208;4.242;2023-07-13T05:33:22;18.20;99.90
19164;DHT22;9714;51.208;4.242;2023-07-13T05:35:50;18.20;99.90
19164;DHT22;9714;51.208;4.242;2023-07-13T05:38:21;18.40;99.90
19164;DHT22;9714;51.208;4.242;2023-07-13T05:40:50;18.40;99.90
19164;DHT22;9714;51.208;4.242;2023-07-13T05:43:19;18.30;99.90
19164;DHT22;9714;51.208;4.242;2023-07-13T05:45:47;18.50;99.90
19164;DHT22;9714;51.208;4.242;2023-07-13T05:48:16;18.50;99.90
19164;DHT22;9714;51.208;4.242;2023-07-13T05:50:44;18.40;99.90
19164;DHT22;9714;51.208;4.242;2023-07-13T05:53:13;18.30;99.90
19164;DHT22;9714;51.208;4.242;2023-07-13T05:55:43;18.20;99.90
19164;DHT22;9714;51.208;4.242;2023-07-13T05:58:14;18.10;99.90
19164;DHT22;9714;51.208;4.242;2023-07-13T06:00:41;18.30;99.90
19164;DHT22;9714;51.208;4.242;2023-07-13T06:03:08;18.40;99.90
19164;DHT22;9714;51.208;4.242;2023-07-13T06:05:37;18.40;99.90
19164;DHT22;9714;51.208;4.242;2023-07-13T06:08:06;18.60;99.90
19164;DHT22;9714;51.208;4.242;2023-07-13T06:10:33;18.50;99.90
19164;DHT22;9714;51.208;4.242;2023-07-13T06:13:02;18.70;99.90
19164;DHT22;9714;51.208;4.242;2023-07-13T06:15:29;18.90;99.90
19164;DHT22;9714;51.208;4.242;2023-07-13T06:17:59;19.10;99.90
19164;DHT22;9714;51.208;4.242;2023-07-13T06:20:26;19.00;99.90
19164;DHT22;9714;51.208;4.242;2023-07-13T06:22:54;18.90;99.90
19164;DHT22;9714;51.208;4.242;2023-07-13T06:25:22;19.10;99.90
19164;DHT22;9714;51.208;4.242;2023-07-13T06:28:13;19.10;99.90
19164;DHT22;9714;51.208;4.242;2023-07-13T06:30:40;19.30;99.90
19164;DHT22;9714;51.208;4.242;2023-07-13T06:33:07;19.60;99.90
19164;DHT22;9714;51.208;4.242;2023-07-13T06:35:35;19.80;99.90
19164;DHT22;9714;51.208;4.242;2023-07-13T06:38:04;19.70;99.90
19164;DHT22;9714;51.208;4.242;2023-07-13T06:40:33;19.40;99.90
19164;DHT22;9714;51.208;4.242;2023-07-13T06:43:00;19.50;99.90
19164;DHT22;9714;51.208;4.242;2023-07-13T06:45:29;19.60;99.90
19164;DHT22;9714;51.208;4.242;2023-07-13T06:47:56;19.60;99.90
19164;DHT22;9714;51.208;4.242;2023-07-13T06:50:25;19.80;99.90
19164;DHT22;9714;51.208;4.242;2023-07-13T06:52:52;19.60;99.90
19164;DHT22;9714;51.208;4.242;2023-07-13T06:55:19;20.00;99.90
19164;DHT22;9714;51.208;4.242;2023-07-13T06:57:47;20.40;99.90
19164;DHT22;9714;51.208;4.242;2023-07-13T07:00:15;20.60;99.90
19164;DHT22;9714;51.208;4.242;2023-07-13T07:02:43;20.90;99.90
19164;DHT22;9714;51.208;4.242;2023-07-13T07:05:12;21.30;99.90
19164;DHT22;9714;51.208;4.242;2023-07-13T07:07:41;21.00;99.90
19164;DHT22;9714;51.208;4.242;2023-07-13T07:10:09;20.80;99.90
19164;DHT22;9714;51.208;4.242;2023-07-13T07:12:36;20.80;99.90
19164;DHT22;9714;51.208;4.242;2023-07-13T07:15:05;21.00;99.90
19164;DHT22;9714;51.208;4.242;2023-07-13T07:17:34;20.70;99.90
19164;DHT22;9714;51.208;4.242;2023-07-13T07:20:04;20.90;99.90
19164;DHT22;9714;51.208;4.242;2023-07-13T07:22:31;20.80;99.90
19164;DHT22;9714;51.208;4.242;2023-07-13T07:25:00;20.70;99.90
19164;DHT22;9714;51.208;4.242;2023-07-13T07:27:27;20.60;99.90
19164;DHT22;9714;51.208;4.242;2023-07-13T07:29:54;20.60;99.90
19164;DHT22;9714;51.208;4.242;2023-07-13T07:32:24;20.80;99.90
19164;DHT22;9714;51.208;4.242;2023-07-13T07:34:51;21.00;99.90
19164;DHT22;9714;51.208;4.242;2023-07-13T07:37:20;21.20;99.90
19164;DHT22;9714;51.208;4.242;2023-07-13T07:39:47;21.50;99.90
19164;DHT22;9714;51.208;4.242;2023-07-13T07:42:15;21.40;99.90
19164;DHT22;9714;51.208;4.242;2023-07-13T07:44:45;21.40;99.90
19164;DHT22;9714;51.208;4.242;2023-07-13T07:47:12;21.50;99.90
19164;DHT22;9714;51.208;4.242;2023-07-13T07:49:40;21.60;99.90
19164;DHT22;9714;51.208;4.242;2023-07-13T07:52:08;22.00;99.90
19164;DHT22;9714;51.208;4.242;2023-07-13T07:54:36;22.20;99.90
19164;DHT22;9714;51.208;4.242;2023-07-13T07:57:07;22.20;99.90
19164;DHT22;9714;51.208;4.242;2023-07-13T07:59:36;22.20;99.90
19164;DHT22;9714;51.208;4.242;2023-07-13T08:02:04;21.80;99.90
19164;DHT22;9714;51.208;4.242;2023-07-13T08:04:31;21.90;99.90
19164;DHT22;9714;51.208;4.242;2023-07-13T08:06:58;21.70;99.90
19164;DHT22;9714;51.208;4.242;2023-07-13T08:09:28;21.90;99.90
19164;DHT22;9714;51.208;4.242;2023-07-13T08:11:56;22.30;99.90
19164;DHT22;9714;51.208;4.242;2023-07-13T08:14:24;22.60;99.90
19164;DHT22;9714;51.208;4.242;2023-07-13T08:16:51;22.80;99.90
19164;DHT22;9714;51.208;4.242;2023-07-13T08:19:21;22.70;99.90
19164;DHT22;9714;51.208;4.242;2023-07-13T08:21:48;22.50;99.90
19164;DHT22;9714;51.208;4.242;2023-07-13T08:24:15;22.70;99.90
19164;DHT22;9714;51.208;4.242;2023-07-13T08:26:47;23.00;99.90
19164;DHT22;9714;51.208;4.242;2023-07-13T08:29:17;23.10;99.90
19164;DHT22;9714;51.208;4.242;2023-07-13T08:31:47;23.00;99.90
19164;DHT22;9714;51.208;4.242;2023-07-13T08:34:15;22.70;99.90
19164;DHT22;9714;51.208;4.242;2023-07-13T08:36:45;22.60;99.90
19164;DHT22;9714;51.208;4.242;2023-07-13T08:39:13;22.80;99.90
19164;DHT22;9714;51.208;4.242;2023-07-13T08:41:52;23.10;99.90
19164;DHT22;9714;51.208;4.242;2023-07-13T08:44:30;23.40;99.90
19164;DHT22;9714;51.208;4.242;2023-07-13T08:47:03;24.40;99.90
19164;DHT22;9714;51.208;4.242;2023-07-13T08:49:33;25.10;99.90
19164;DHT22;9714;51.208;4.242;2023-07-13T08:52:04;25.40;99.90
19164;DHT22;9714;51.208;4.242;2023-07-13T08:54:37;25.50;99.90
19164;DHT22;9714;51.208;4.242;2023-07-13T08:57:15;25.30;99.90
19164;DHT22;9714;51.208;4.242;2023-07-13T08:59:50;24.90;99.90
19164;DHT22;9714;51.208;4.242;2023-07-13T09:02:28;24.70;99.90
19164;DHT22;9714;51.208;4.242;2023-07-13T09:05:02;24.80;99.90
19164;DHT22;9714;51.208;4.242;2023-07-13T09:07:45;25.30;99.90
19164;DHT22;9714;51.208;4.242;2023-07-13T09:10:23;24.70;99.90
19164;DHT22;9714;51.208;4.242;2023-07-13T09:13:04;24.20;99.90
19164;DHT22;9714;51.208;4.242;2023-07-13T09:15:36;24.40;99.90
19164;DHT22;9714;51.208;4.242;2023-07-13T09:18:16;25.00;99.90
19164;DHT22;9714;51.208;4.242;2023-07-13T09:20:50;25.30;99.90
19164;DHT22;9714;51.208;4.242;2023-07-13T09:23:49;25.10;99.90
19164;DHT22;9714;51.208;4.242;2023-07-13T09:26:23;24.70;99.90
19164;DHT22;9714;51.208;4.242;2023-07-13T09:28:55;25.90;99.90
19164;DHT22;9714;51.208;4.242;2023-07-13T09:31:33;26.80;99.90
19164;DHT22;9714;51.208;4.242;2023-07-13T09:34:06;27.40;99.90
19164;DHT22;9714;51.208;4.242;2023-07-13T09:36:35;27.40;99.90
19164;DHT22;9714;51.208;4.242;2023-07-13T09:39:10;27.40;99.40
19164;DHT22;9714;51.208;4.242;2023-07-13T09:41:47;26.80;99.80
19164;DHT22;9714;51.208;4.242;2023-07-13T09:44:17;26.20;99.30
19164;DHT22;9714;51.208;4.242;2023-07-13T09:46:54;25.90;99.90
19164;DHT22;9714;51.208;4.242;2023-07-13T09:49:24;25.50;99.90
19164;DHT22;9714;51.208;4.242;2023-07-13T09:51:58;24.90;99.90
19164;DHT22;9714;51.208;4.242;2023-07-13T09:54:28;24.70;99.90
19164;DHT22;9714;51.208;4.242;2023-07-13T09:57:02;25.80;99.60
19164;DHT22;9714;51.208;4.242;2023-07-13T09:59:35;27.20;96.70
19164;DHT22;9714;51.208;4.242;2023-07-13T10:02:23;27.50;95.90
19164;DHT22;9714;51.208;4.242;2023-07-13T10:04:56;28.10;93.80
19164;DHT22;9714;51.208;4.242;2023-07-13T10:07:25;28.30;93.40
19164;DHT22;9714;51.208;4.242;2023-07-13T10:09:54;28.20;93.40
19164;DHT22;9714;51.208;4.242;2023-07-13T10:12:22;28.70;92.50
19164;DHT22;9714;51.208;4.242;2023-07-13T10:14:52;28.70;91.20
19164;DHT22;9714;51.208;4.242;2023-07-13T10:17:32;28.60;91.00
19164;DHT22;9714;51.208;4.242;2023-07-13T10:20:02;28.80;89.30
19164;DHT22;9714;51.208;4.242;2023-07-13T10:22:37;29.60;87.10
19164;DHT22;9714;51.208;4.242;2023-07-13T10:25:17;29.90;82.50
19164;DHT22;9714;51.208;4.242;2023-07-13T10:27:47;30.10;80.90
19164;DHT22;9714;51.208;4.242;2023-07-13T10:30:20;30.70;79.50
19164;DHT22;9714;51.208;4.242;2023-07-13T10:32:50;31.30;76.90
19164;DHT22;9714;51.208;4.242;2023-07-13T10:35:22;30.50;74.50
19164;DHT22;9714;51.208;4.242;2023-07-13T10:37:55;29.80;76.10
19164;DHT22;9714;51.208;4.242;2023-07-13T10:40:33;30.90;75.40
19164;DHT22;9714;51.208;4.242;2023-07-13T10:43:17;31.60;72.70
19164;DHT22;9714;51.208;4.242;2023-07-13T10:45:47;31.50;71.30
19164;DHT22;9714;51.208;4.242;2023-07-13T10:48:46;31.00;71.90
19164;DHT22;9714;51.208;4.242;2023-07-13T10:51:18;30.20;71.90
19164;DHT22;9714;51.208;4.242;2023-07-13T10:53:54;29.20;74.30
19164;DHT22;9714;51.208;4.242;2023-07-13T10:56:40;28.30;75.90
19164;DHT22;9714;51.208;4.242;2023-07-13T10:59:36;28.00;77.60
19164;DHT22;9714;51.208;4.242;2023-07-13T11:02:21;27.40;89.90
19164;DHT22;9714;51.208;4.242;2023-07-13T11:04:57;27.00;93.00
19164;DHT22;9714;51.208;4.242;2023-07-13T11:07:27;26.50;92.90
19164;DHT22;9714;51.208;4.242;2023-07-13T11:09:56;25.90;98.20
19164;DHT22;9714;51.208;4.242;2023-07-13T11:12:52;24.80;99.90
19164;DHT22;9714;51.208;4.242;2023-07-13T11:15:42;23.60;99.90
19164;DHT22;9714;51.208;4.242;2023-07-13T11:18:22;22.90;99.90
19164;DHT22;9714;51.208;4.242;2023-07-13T11:21:13;22.60;99.90
19164;DHT22;9714;51.208;4.242;2023-07-13T11:23:53;22.10;99.90
19164;DHT22;9714;51.208;4.242;2023-07-13T11:26:50;21.80;99.90
19164;DHT22;9714;51.208;4.242;2023-07-13T11:29:32;21.60;99.90
19164;DHT22;9714;51.208;4.242;2023-07-13T11:32:22;21.70;99.90
19164;DHT22;9714;51.208;4.242;2023-07-13T11:34:55;21.80;99.90
19164;DHT22;9714;51.208;4.242;2023-07-13T11:37:28;22.00;99.90
19164;DHT22;9714;51.208;4.242;2023-07-13T11:40:27;22.10;99.90
19164;DHT22;9714;51.208;4.242;2023-07-13T11:42:59;21.90;99.90
19164;DHT22;9714;51.208;4.242;2023-07-13T11:45:30;21.60;99.90
19164;DHT22;9714;51.208;4.242;2023-07-13T11:47:57;21.40;99.90
19164;DHT22;9714;51.208;4.242;2023-07-13T11:50:26;21.20;99.90
19164;DHT22;9714;51.208;4.242;2023-07-13T11:52:57;21.20;99.90
19164;DHT22;9714;51.208;4.242;2023-07-13T11:55:25;21.50;99.90
19164;DHT22;9714;51.208;4.242;2023-07-13T11:57:57;21.70;99.90
19164;DHT22;9714;51.208;4.242;2023-07-13T12:00:28;22.10;99.90
19164;DHT22;9714;51.208;4.242;2023-07-13T12:02:59;22.10;99.90
19164;DHT22;9714;51.208;4.242;2023-07-13T12:05:28;22.40;99.90
19164;DHT22;9714;51.208;4.242;2023-07-13T12:08:03;22.80;99.90
19164;DHT22;9714;51.208;4.242;2023-07-13T12:10:37;23.00;99.90
19164;DHT22;9714;51.208;4.242;2023-07-13T12:13:05;23.40;99.90
19164;DHT22;9714;51.208;4.242;2023-07-13T12:15:38;23.50;99.90
19164;DHT22;9714;51.208;4.242;2023-07-13T12:18:14;23.40;99.90
19164;DHT22;9714;51.208;4.242;2023-07-13T12:20:41;23.60;99.90
19164;DHT22;9714;51.208;4.242;2023-07-13T12:23:22;23.40;99.90
19164;DHT22;9714;51.208;4.242;2023-07-13T12:25:50;23.20;99.90
19164;DHT22;9714;51.208;4.242;2023-07-13T12:28:28;23.20;99.90
19164;DHT22;9714;51.208;4.242;2023-07-13T12:30:58;23.40;99.90
19164;DHT22;9714;51.208;4.242;2023-07-13T12:33:28;23.50;99.90
19164;DHT22;9714;51.208;4.242;2023-07-13T12:35:55;23.70;99.90
19164;DHT22;9714;51.208;4.242;2023-07-13T12:38:26;23.90;99.90
19164;DHT22;9714;51.208;4.242;2023-07-13T12:40:53;24.20;99.90
19164;DHT22;9714;51.208;4.242;2023-07-13T12:43:22;24.40;99.90
19164;DHT22;9714;51.208;4.242;2023-07-13T12:45:59;24.50;99.90
19164;DHT22;9714;51.208;4.242;2023-07-13T12:48:26;24.60;99.90
19164;DHT22;9714;51.208;4.242;2023-07-13T12:50:55;24.90;99.90
19164;DHT22;9714;51.208;4.242;2023-07-13T12:53:28;24.90;99.90
19164;DHT22;9714;51.208;4.242;2023-07-13T12:56:01;25.00;99.90
19164;DHT22;9714;51.208;4.242;2023-07-13T12:58:30;25.10;99.90
19164;DHT22;9714;51.208;4.242;2023-07-13T13:01:01;25.30;99.90
19164;DHT22;9714;51.208;4.242;2023-07-13T13:03:31;25.00;99.90
19164;DHT22;9714;51.208;4.242;2023-07-13T13:06:00;25.40;99.90
19164;DHT22;9714;51.208;4.242;2023-07-13T13:08:29;25.40;99.90
19164;DHT22;9714;51.208;4.242;2023-07-13T13:10:58;25.70;99.90
19164;DHT22;9714;51.208;4.242;2023-07-13T13:13:25;26.00;99.90
19164;DHT22;9714;51.208;4.242;2023-07-13T13:15:52;27.00;99.90
19164;DHT22;9714;51.208;4.242;2023-07-13T13:18:20;27.70;99.90
19164;DHT22;9714;51.208;4.242;2023-07-13T13:20:49;28.10;99.90
19164;DHT22;9714;51.208;4.242;2023-07-13T13:23:19;28.10;99.90
19164;DHT22;9714;51.208;4.242;2023-07-13T13:25:50;29.30;99.90
19164;DHT22;9714;51.208;4.242;2023-07-13T13:28:20;29.90;99.90
19164;DHT22;9714;51.208;4.242;2023-07-13T13:30:50;29.80;99.90
19164;DHT22;9714;51.208;4.242;2023-07-13T13:33:20;30.90;98.20
19164;DHT22;9714;51.208;4.242;2023-07-13T13:35:49;31.30;95.80
19164;DHT22;9714;51.208;4.242;2023-07-13T13:38:19;31.20;96.10
19164;DHT22;9714;51.208;4.242;2023-07-13T13:40:47;31.80;95.20
19164;DHT22;9714;51.208;4.242;2023-07-13T13:43:15;31.20;93.10
19164;DHT22;9714;51.208;4.242;2023-07-13T13:45:45;30.20;93.90
19164;DHT22;9714;51.208;4.242;2023-07-13T13:48:17;29.20;94.30
19164;DHT22;9714;51.208;4.242;2023-07-13T13:50:47;28.40;95.70
19164;DHT22;9714;51.208;4.242;2023-07-13T13:53:14;27.80;97.30
19164;DHT22;9714;51.208;4.242;2023-07-13T13:55:41;27.70;98.50
19164;DHT22;9714;51.208;4.242;2023-07-13T13:58:09;27.70;98.10
19164;DHT22;9714;51.208;4.242;2023-07-13T14:00:37;27.60;98.10
19164;DHT22;9714;51.208;4.242;2023-07-13T14:03:10;27.40;99.40
19164;DHT22;9714;51.208;4.242;2023-07-13T14:05:41;27.80;99.30
19164;DHT22;9714;51.208;4.242;2023-07-13T14:08:12;27.70;98.30
19164;DHT22;9714;51.208;4.242;2023-07-13T14:10:40;27.80;97.50
19164;DHT22;9714;51.208;4.242;2023-07-13T14:13:15;27.60;96.90
19164;DHT22;9714;51.208;4.242;2023-07-13T14:15:44;28.50;97.00
19164;DHT22;9714;51.208;4.242;2023-07-13T14:18:13;29.00;93.90
19164;DHT22;9714;51.208;4.242;2023-07-13T14:20:43;29.30;93.30
19164;DHT22;9714;51.208;4.242;2023-07-13T14:23:12;29.10;94.80
19164;DHT22;9714;51.208;4.242;2023-07-13T14:25:40;28.60;95.10
19164;DHT22;9714;51.208;4.242;2023-07-13T14:28:19;27.90;97.00
19164;DHT22;9714;51.208;4.242;2023-07-13T14:30:49;27.90;98.20
19164;DHT22;9714;51.208;4.242;2023-07-13T14:33:18;27.50;98.40
19164;DHT22;9714;51.208;4.242;2023-07-13T14:35:45;27.00;99.80
19164;DHT22;9714;51.208;4.242;2023-07-13T14:38:15;27.90;99.00
19164;DHT22;9714;51.208;4.242;2023-07-13T14:40:42;28.70;97.90
19164;DHT22;9714;51.208;4.242;2023-07-13T14:43:10;28.40;97.30
19164;DHT22;9714;51.208;4.242;2023-07-13T14:45:40;27.10;98.40
19164;DHT22;9714;51.208;4.242;2023-07-13T14:48:16;26.60;99.80
19164;DHT22;9714;51.208;4.242;2023-07-13T14:50:46;26.60;99.90
19164;DHT22;9714;51.208;4.242;2023-07-13T14:53:18;26.30;99.90
19164;DHT22;9714;51.208;4.242;2023-07-13T14:55:45;26.40;99.90
19164;DHT22;9714;51.208;4.242;2023-07-13T14:58:12;26.60;99.90
19164;DHT22;9714;51.208;4.242;2023-07-13T15:00:40;26.10;99.90
19164;DHT22;9714;51.208;4.242;2023-07-13T15:03:17;26.60;99.90
19164;DHT22;9714;51.208;4.242;2023-07-13T15:05:48;26.60;99.90
19164;DHT22;9714;51.208;4.242;2023-07-13T15:08:16;26.80;99.90
19164;DHT22;9714;51.208;4.242;2023-07-13T15:10:43;26.60;99.90
19164;DHT22;9714;51.208;4.242;2023-07-13T15:13:19;26.60;99.90
19164;DHT22;9714;51.208;4.242;2023-07-13T15:15:49;26.80;99.90
19164;DHT22;9714;51.208;4.242;2023-07-13T15:18:18;26.70;99.90
19164;DHT22;9714;51.208;4.242;2023-07-13T15:20:49;27.00;99.90
19164;DHT22;9714;51.208;4.242;2023-07-13T15:23:17;26.90;99.90
19164;DHT22;9714;51.208;4.242;2023-07-13T15:25:45;27.10;99.90
19164;DHT22;9714;51.208;4.242;2023-07-13T15:28:12;27.00;99.90
19164;DHT22;9714;51.208;4.242;2023-07-13T15:30:42;26.80;99.90
19164;DHT22;9714;51.208;4.242;2023-07-13T15:33:12;26.80;99.90
19164;DHT22;9714;51.208;4.242;2023-07-13T15:35:43;26.50;99.90
19164;DHT22;9714;51.208;4.242;2023-07-13T15:38:18;26.30;99.90
19164;DHT22;9714;51.208;4.242;2023-07-13T15:40:48;26.20;99.90
19164;DHT22;9714;51.208;4.242;2023-07-13T15:43:17;26.40;99.90
19164;DHT22;9714;51.208;4.242;2023-07-13T15:45:45;26.30;99.90
19164;DHT22;9714;51.208;4.242;2023-07-13T15:48:15;26.20;99.90
19164;DHT22;9714;51.208;4.242;2023-07-13T15:50:44;26.40;99.90
19164;DHT22;9714;51.208;4.242;2023-07-13T15:53:19;26.40;99.90
19164;DHT22;9714;51.208;4.242;2023-07-13T15:55:46;26.80;99.90
19164;DHT22;9714;51.208;4.242;2023-07-13T15:58:14;27.40;99.90
19164;DHT22;9714;51.208;4.242;2023-07-13T16:00:42;28.10;98.50
19164;DHT22;9714;51.208;4.242;2023-07-13T16:03:10;28.30;97.90
19164;DHT22;9714;51.208;4.242;2023-07-13T16:05:37;28.70;97.00
19164;DHT22;9714;51.208;4.242;2023-07-13T16:08:06;28.70;97.90